METAR AND TAF INFORMATION
METAR FOR LERT
ADDS - METARS form results

(0722 UTC 03 February 2023)
Data provider http://aviationweather.gov/metar/data/
 
METAR text: LERT 030700Z 03006KT CAVOK 04/03 Q1030 NOSIG
Conditions at: LERT (ROTA NAVAL STATI, ES) observed 0700 UTC 03 February 2023
Temperature: 4.0°C (39°F)
Dewpoint: 3.0°C (37°F) [RH = 93%]
Pressure (altimeter): 30.41 inches Hg (1030.0 mb)
Winds: from the NNE (30 degrees) at 7 MPH (6 knots; 3.1 m/s)
Visibility: 6 or more miles (10+ km)
Ceiling: ceiling and visibility are OK
Clouds: unknown
Weather: no significant weather observed at this time

METAR text: LERT 030630Z 03006KT CAVOK 05/04 Q1029 NOSIG
Conditions at: LERT (ROTA NAVAL STATI, ES) observed 0630 UTC 03 February 2023
Temperature: 5.0°C (41°F)
Dewpoint: 4.0°C (39°F) [RH = 93%]
Pressure (altimeter): 30.38 inches Hg (1029.0 mb)
Winds: from the NNE (30 degrees) at 7 MPH (6 knots; 3.1 m/s)
Visibility: 6 or more miles (10+ km)
Ceiling: ceiling and visibility are OK
Clouds: unknown
Weather: no significant weather observed at this time

Forecast for: LERT (ROTA NAVAL STATI, ES)
Text: TAF LERT 030200Z 0303/0403 04005KT CAVOK TX18/0314Z TN04/0307Z
Forecast period: 0300 UTC 03 February 2023 to 0300 UTC 04 February 2023
Forecast type: FROM: standard forecast or significant change
Winds: from the NE (40 degrees) at 6 MPH (5 knots; 2.6 m/s)
Visibility: 6 or more miles (10+ km)
Ceiling: unknown
Clouds: missing
Weather: no significant weather forecast for this period

 AIRPORT MAP

 RUNWAY INFORMATION
Runway 10 Runway length 12106 ft Runway width 200 ft
Runway elevation 63 ft Runway displaced threshold 0 ft Runway heading 97
Runway 28 Runway length 12106 ft Runway width 200 ft
Runway elevation 62 ft Runway displaced threshold 0 ft Runway heading 277

 AIRPORT FREQUENCIES
Type A/G Name CW AOK Frequency 672.15 MHZ
Type APP Name SEVILLA AP Frequency 120.8 MHZ
Type ATIS Name ROTA INFOR Frequency 267.6 MHZ
Type GND Name GND Frequency 130.7 MHZ
Type MISC Name BASE OPS Frequency 126.2 MHZ
Type TWR Name ROTA TWR Frequency 119.75 MHZ
Type APP Name APP Frequency 128.5 MHZ
Type APP Name APP Frequency 264.7 MHZ
Type APP Name APP Frequency 279 MHZ
Type TWR Name TWR Frequency 122.1 MHZ
Type TWR Name TWR Frequency 139.3 MHZ
Type TWR Name TWR Frequency 257.8 MHZ
Type TWR Name TWR Frequency 306.85 MHZ
Type GCA Name ROTA GCA Frequency 123.3 MHZ
Type GCA Name GCA Frequency 134.1 MHZ
Type TWR Name HEL Frequency 122.225 MHZ

 AIRPORT NEAR NAVIGATION AIDS
Type TACAN Name Rota Frequency 108600 KHZ
Type NDB Name Rota Frequency 268 KHZ